createdAt,value
2023-01-10T00:01:25.225Z,100049.13
2023-01-10T00:03:53.116Z,100053.66
2023-01-10T00:06:21.520Z,100058.63
2023-01-10T00:08:51.275Z,100053.88
2023-01-10T00:11:40.715Z,100055.16
2023-01-10T00:14:13.724Z,100060.13
2023-01-10T00:16:46.186Z,100059.78
2023-01-10T00:19:16.201Z,100062.63
2023-01-10T00:21:48.430Z,100062.66
2023-01-10T00:24:21.907Z,100069.91
2023-01-10T00:26:51.593Z,100062.69
2023-01-10T00:29:26.138Z,100061.09
2023-01-10T00:32:01.850Z,100061.53
2023-01-10T00:34:36.684Z,100067.19
2023-01-10T00:37:11.852Z,100063.56
2023-01-10T00:39:44.756Z,100071.19
2023-01-10T00:42:37.129Z,100065.19
2023-01-10T00:45:07.921Z,100066.78
2023-01-10T00:47:35.513Z,100058.72
2023-01-10T00:50:12.190Z,100069.22
2023-01-10T00:52:39.675Z,100068.41
2023-01-10T00:55:15.253Z,100072.84
2023-01-10T00:57:48.304Z,100081.31
2023-01-10T01:00:23.440Z,100082.13
2023-01-10T01:02:53.598Z,100090.59
2023-01-10T01:05:27.857Z,100081.28
2023-01-10T01:07:59.270Z,100091.00
2023-01-10T01:10:27.010Z,100084.91
2023-01-10T01:13:09.439Z,100081.72
2023-01-10T01:15:42.654Z,100078.50
2023-01-10T01:18:12.802Z,100078.88
2023-01-10T01:20:42.849Z,100091.38
2023-01-10T01:23:16.083Z,100099.44
2023-01-10T01:25:51.335Z,100095.81
2023-01-10T01:28:21.761Z,100098.22
2023-01-10T01:30:52.204Z,100099.84
2023-01-10T01:33:27.730Z,100101.44
2023-01-10T01:36:07.693Z,100097.44
2023-01-10T01:38:40.260Z,100103.06
2023-01-10T01:41:28.625Z,100107.50
2023-01-10T01:44:13.659Z,100118.34
2023-01-10T01:46:48.722Z,100116.38
2023-01-10T01:49:24.433Z,100110.31
2023-01-10T01:52:01.184Z,100110.72
2023-01-10T01:54:32.467Z,100120.78
2023-01-10T01:57:19.394Z,100122.81
2023-01-10T01:59:59.159Z,100126.03
2023-01-10T02:02:36.916Z,100117.56
2023-01-10T02:05:14.965Z,100124.41
2023-01-10T02:07:51.712Z,100130.50
2023-01-10T02:10:25.261Z,100128.06
2023-01-10T02:12:58.515Z,100121.59
2023-01-10T02:15:36.918Z,100120.00
2023-01-10T02:18:07.380Z,100113.94
2023-01-10T02:20:50.914Z,100105.06
2023-01-10T02:23:40.355Z,100115.06
2023-01-10T02:26:32.625Z,100115.88
2023-01-10T02:29:54.515Z,100113.84
2023-01-10T02:33:00.228Z,100114.66
2023-01-10T02:35:56.679Z,100117.44
2023-01-10T02:38:45.808Z,100118.63
2023-01-10T02:41:35.633Z,100121.41
2023-01-10T02:44:16.187Z,100128.66
2023-01-10T02:46:52.371Z,100128.19
2023-01-10T02:49:22.884Z,100126.63
2023-01-10T02:51:56.251Z,100135.91
2023-01-10T02:54:30.654Z,100133.84
2023-01-10T02:57:32.747Z,100134.59
2023-01-10T03:00:20.505Z,100143.91
2023-01-10T03:03:02.707Z,100141.09
2023-01-10T03:06:13.627Z,100149.56
2023-01-10T03:08:49.426Z,100160.88
2023-01-10T03:11:37.240Z,100162.50
2023-01-10T03:14:20.886Z,100163.72
2023-01-10T03:17:05.912Z,100160.09
2023-01-10T03:19:43.452Z,100162.53
2023-01-10T03:22:15.056Z,100169.44
2023-01-10T03:24:50.327Z,100177.53
2023-01-10T03:27:46.611Z,100179.13
2023-01-10T03:30:39.929Z,100186.78
2023-01-10T03:33:08.370Z,100181.97
2023-01-10T03:35:51.934Z,100182.81
2023-01-10T03:38:56.311Z,100184.06
2023-01-10T03:41:37.703Z,100187.69
2023-01-10T03:44:47.274Z,100192.53
2023-01-10T03:47:20.577Z,100212.69
2023-01-10T03:49:54.249Z,100204.63
2023-01-10T03:52:24.805Z,100211.88
2023-01-10T03:54:59.985Z,100204.22
2023-01-10T03:57:27.617Z,100214.31
2023-01-10T04:00:00.700Z,100209.81
2023-01-10T04:02:34.342Z,100217.91
2023-01-10T04:05:10.752Z,100224.72
2023-01-10T04:07:41.378Z,100230.34
2023-01-10T04:10:24.552Z,100239.22
2023-01-10T04:12:53.278Z,100241.22
2023-01-10T04:15:23.616Z,100235.56
2023-01-10T04:17:54.174Z,100232.38
2023-01-10T04:20:27.840Z,100248.09
2023-01-10T04:22:55.651Z,100245.69
2023-01-10T04:25:23.656Z,100240.03
2023-01-10T04:27:52.421Z,100252.13
2023-01-10T04:30:26.464Z,100247.28
2023-01-10T04:32:55.276Z,100257.75
2023-01-10T04:35:27.608Z,100247.69
2023-01-10T04:37:58.864Z,100251.31
2023-01-10T04:40:26.659Z,100267.41
2023-01-10T04:42:54.691Z,100263.78
2023-01-10T04:45:25.886Z,100260.13
2023-01-10T04:48:00.576Z,100270.22
2023-01-10T04:50:33.773Z,100283.09
2023-01-10T04:53:01.440Z,100288.75
2023-01-10T04:55:35.489Z,100280.69
2023-01-10T04:58:14.617Z,100296.81
2023-01-10T05:00:45.539Z,100294.00
2023-01-10T05:03:20.289Z,100301.22
2023-01-10T05:05:50.973Z,100307.28
2023-01-10T05:08:26.351Z,100304.03
2023-01-10T05:10:56.487Z,100304.03
2023-01-10T05:13:26.561Z,100319.72
2023-01-10T05:16:01.750Z,100317.69
2023-01-10T05:18:32.156Z,100322.53
2023-01-10T05:21:09.813Z,100319.31
2023-01-10T05:23:45.863Z,100322.53
2023-01-10T05:26:24.424Z,100328.19
2023-01-10T05:28:55.022Z,100327.81
2023-01-10T05:31:27.742Z,100332.63
2023-01-10T05:33:55.504Z,100338.22
2023-01-10T05:36:23.341Z,100327.78
2023-01-10T05:38:54.497Z,100335.38
2023-01-10T05:41:29.621Z,100338.66
2023-01-10T05:44:00.533Z,100349.53
2023-01-10T05:46:32.637Z,100355.56
2023-01-10T05:49:06.432Z,100352.38
2023-01-10T05:51:38.903Z,100358.00
2023-01-10T05:54:11.709Z,100364.84
2023-01-10T05:56:41.604Z,100363.66
2023-01-10T05:59:27.537Z,100368.50
2023-01-10T06:01:58.599Z,100377.34
2023-01-10T06:04:28.475Z,100368.50
2023-01-10T06:06:56.194Z,100376.97
2023-01-10T06:09:31.326Z,100384.16
2023-01-10T06:12:01.588Z,100383.38
2023-01-10T06:14:32.756Z,100396.25
2023-01-10T06:17:10.539Z,100414.38
2023-01-10T06:19:40.253Z,100414.75
2023-01-10T06:22:13.613Z,100425.25
2023-01-10T06:24:44.340Z,100428.50
2023-01-10T06:27:12.078Z,100428.88
2023-01-10T06:29:45.313Z,100435.31
2023-01-10T06:32:18.550Z,100444.19
2023-01-10T06:34:51.255Z,100447.81
2023-01-10T06:37:24.097Z,100452.22
2023-01-10T06:39:57.560Z,100461.47
2023-01-10T06:42:25.242Z,100460.28
2023-01-10T06:44:56.942Z,100464.69
2023-01-10T06:47:30.585Z,100468.75
2023-01-10T06:49:57.957Z,100480.41
2023-01-10T06:52:30.889Z,100485.28
2023-01-10T06:55:01.404Z,100491.72
2023-01-10T06:57:31.972Z,100495.41
2023-01-10T07:00:04.699Z,100501.81
2023-01-10T07:02:32.652Z,100508.69
2023-01-10T07:05:11.340Z,100517.53
2023-01-10T07:07:39.291Z,100519.13
2023-01-10T07:10:12.637Z,100522.72
2023-01-10T07:12:43.365Z,100533.59
2023-01-10T07:15:17.469Z,100536.75
2023-01-10T07:17:48.962Z,100541.66
2023-01-10T07:20:21.053Z,100546.94
2023-01-10T07:22:58.935Z,100555.41
2023-01-10T07:25:30.757Z,100553.03
2023-01-10T07:28:02.077Z,100559.84
2023-01-10T07:30:30.809Z,100561.53
2023-01-10T07:33:03.226Z,100562.81
2023-01-10T07:35:34.114Z,100570.88
2023-01-10T07:38:12.425Z,100580.63
2023-01-10T07:40:46.072Z,100582.81
2023-01-10T07:43:25.725Z,100591.13
2023-01-10T07:46:12.643Z,100588.78
2023-01-10T07:48:42.472Z,100591.19
2023-01-10T07:51:18.495Z,100610.97
2023-01-10T07:53:48.916Z,100612.91
2023-01-10T07:56:23.311Z,100616.94
2023-01-10T07:58:56.443Z,100626.28
2023-01-10T08:01:27.388Z,100632.34
2023-01-10T08:04:06.414Z,100633.97
2023-01-10T08:06:42.771Z,100647.66
2023-01-10T08:09:22.830Z,100658.91
2023-01-10T08:11:58.695Z,100661.47
2023-01-10T08:14:34.857Z,100673.69
2023-01-10T08:17:14.502Z,100679.69
2023-01-10T08:19:54.945Z,100688.19
2023-01-10T08:22:30.830Z,100693.03
2023-01-10T08:25:10.402Z,100691.88
2023-01-10T08:27:44.787Z,100687.81
2023-01-10T08:30:22.346Z,100697.84
2023-01-10T08:32:56.080Z,100697.09
2023-01-10T08:35:29.743Z,100706.28
2023-01-10T08:38:03.755Z,100705.50
2023-01-10T08:40:39.650Z,100714.53
2023-01-10T08:43:13.062Z,100716.41
2023-01-10T08:45:41.261Z,100718.06
2023-01-10T08:48:15.669Z,100718.50
2023-01-10T08:50:47.061Z,100727.06
2023-01-10T08:53:31.375Z,100729.09
2023-01-10T08:56:07.661Z,100734.75
2023-01-10T08:58:41.583Z,100738.38
2023-01-10T09:01:14.761Z,100749.72
2023-01-10T09:03:46.411Z,100759.44
2023-01-10T09:06:24.262Z,100782.50
2023-01-10T09:08:56.106Z,100780.41
2023-01-10T09:11:26.988Z,100775.59
2023-01-10T09:13:58.961Z,100794.19
2023-01-10T09:16:27.087Z,100797.41
2023-01-10T09:19:04.362Z,100790.53
2023-01-10T09:21:48.134Z,100800.28
2023-01-10T09:24:17.275Z,100805.94
2023-01-10T09:26:47.487Z,100815.25
2023-01-10T09:29:21.552Z,100814.38
2023-01-10T09:31:52.206Z,100822.00
2023-01-10T09:34:25.102Z,100830.50
2023-01-10T09:36:54.427Z,100833.75
2023-01-10T09:39:30.773Z,100843.09
2023-01-10T09:42:21.058Z,100847.94
2023-01-10T09:45:03.934Z,100866.94
2023-01-10T09:47:43.920Z,100869.38
2023-01-10T09:50:44.092Z,100880.78
2023-01-10T09:53:27.085Z,100889.72
2023-01-10T09:56:01.874Z,100889.69
2023-01-10T09:58:37.335Z,100889.72
2023-01-10T10:01:11.193Z,100885.66
2023-01-10T10:04:04.226Z,100888.91
2023-01-10T10:06:38.071Z,100895.75
2023-01-10T10:09:12.167Z,100889.66
2023-01-10T10:12:10.788Z,100897.69
2023-01-10T10:15:18.440Z,100910.34
2023-01-10T10:18:25.241Z,100904.28
2023-01-10T10:21:15.217Z,100908.72
2023-01-10T10:24:14.227Z,100911.56
2023-01-10T10:27:15.017Z,100899.38
2023-01-10T10:29:51.863Z,100906.63
2023-01-10T10:32:41.376Z,100908.75
2023-01-10T10:35:37.443Z,100918.03
2023-01-10T10:38:38.005Z,100921.72
2023-01-10T10:41:23.284Z,100919.66
2023-01-10T10:44:00.983Z,100918.03
2023-01-10T10:46:35.321Z,100909.53
2023-01-10T10:49:24.004Z,100916.41
2023-01-10T10:52:01.300Z,100922.47
2023-01-10T10:54:36.281Z,100931.78
2023-01-10T10:57:09.738Z,100927.75
2023-01-10T10:59:41.424Z,100924.47
2023-01-10T11:02:26.656Z,100912.22
2023-01-10T11:05:11.102Z,100909.00
2023-01-10T11:07:42.256Z,100899.63
2023-01-10T11:10:36.829Z,100904.81
2023-01-10T11:13:09.805Z,100896.31
2023-01-10T11:15:44.267Z,100898.34
2023-01-10T11:18:27.227Z,100910.44
2023-01-10T11:21:02.869Z,100910.34
2023-01-10T11:23:45.688Z,100920.06
2023-01-10T11:26:31.149Z,100918.44
2023-01-10T11:29:20.966Z,100923.63
2023-01-10T11:31:58.374Z,100927.69
2023-01-10T11:34:36.323Z,100922.88
2023-01-10T11:37:42.818Z,100919.97
2023-01-10T11:40:19.204Z,100919.19
2023-01-10T11:42:48.163Z,100914.69
2023-01-10T11:45:18.655Z,100921.16
2023-01-10T11:47:51.336Z,100921.56
2023-01-10T11:50:44.271Z,100917.53
2023-01-10T11:53:39.531Z,100926.38
2023-01-10T11:56:18.251Z,100933.66
2023-01-10T11:58:51.058Z,100938.50
2023-01-10T12:01:33.699Z,100936.09
2023-01-10T12:04:05.194Z,100933.66
2023-01-10T12:06:33.963Z,100936.50
2023-01-10T12:09:10.102Z,100933.63
2023-01-10T12:11:41.629Z,100944.97
2023-01-10T12:14:21.727Z,100942.47
2023-01-10T12:17:02.512Z,100941.69
2023-01-10T12:19:33.207Z,100937.28
2023-01-10T12:22:06.251Z,100940.88
2023-01-10T12:24:42.843Z,100929.59
2023-01-10T12:27:18.654Z,100931.19
2023-01-10T12:30:02.236Z,100921.50
2023-01-10T12:32:49.160Z,100928.75
2023-01-10T12:35:21.815Z,100936.84
2023-01-10T12:38:08.919Z,100930.00
2023-01-10T12:40:58.766Z,100938.50
2023-01-10T12:43:59.343Z,100952.59
2023-01-10T12:47:06.432Z,100958.25
2023-01-10T12:49:54.736Z,100961.03
2023-01-10T12:52:37.482Z,100950.97
2023-01-10T12:55:22.176Z,100962.69
2023-01-10T12:58:28.233Z,100965.13
2023-01-10T13:01:04.311Z,100965.91
2023-01-10T13:03:45.744Z,100975.97
2023-01-10T13:06:36.666Z,100975.94
2023-01-10T13:09:19.159Z,100974.78
2023-01-10T13:11:59.225Z,100984.50
2023-01-10T13:14:54.651Z,100981.56
2023-01-10T13:17:36.859Z,100988.84
2023-01-10T13:20:19.927Z,100993.00
2023-01-10T13:22:53.513Z,100993.78
2023-01-10T13:25:39.060Z,100997.84
2023-01-10T13:28:30.353Z,100992.53
2023-01-10T13:31:22.671Z,100992.06
2023-01-10T13:34:00.813Z,100993.00
2023-01-10T13:36:42.230Z,100996.22
2023-01-10T13:39:33.445Z,100988.59
2023-01-10T13:42:20.058Z,100984.59
2023-01-10T13:45:03.510Z,100981.41
2023-01-10T13:47:40.883Z,100986.19
2023-01-10T13:50:33.989Z,100975.00
2023-01-10T13:53:04.917Z,100972.50
2023-01-10T13:55:40.003Z,100980.66
2023-01-10T13:58:14.374Z,100992.38
2023-01-10T14:01:08.727Z,100994.66
2023-01-10T14:03:43.361Z,100998.75
2023-01-10T14:06:18.365Z,100996.44
2023-01-10T14:09:19.775Z,101001.63
2023-01-10T14:12:06.331Z,101005.31
2023-01-10T14:14:40.084Z,101015.00
2023-01-10T14:17:18.168Z,101008.56
2023-01-10T14:20:05.125Z,101013.03
2023-01-10T14:22:37.136Z,101026.75
2023-01-10T14:25:24.921Z,101018.22
2023-01-10T14:27:58.809Z,101029.09
2023-01-10T14:30:32.041Z,101024.72
2023-01-10T14:33:21.005Z,101028.34
2023-01-10T14:35:59.886Z,101030.00
2023-01-10T14:38:30.953Z,101027.56
2023-01-10T14:41:14.740Z,101032.44
2023-01-10T14:43:55.639Z,101030.41
2023-01-10T14:46:34.052Z,101034.47
2023-01-10T14:49:19.383Z,101031.19
2023-01-10T14:51:50.800Z,101032.03
2023-01-10T14:54:21.974Z,101034.44
2023-01-10T14:56:54.602Z,101038.06
2023-01-10T14:59:34.331Z,101042.91
2023-01-10T15:02:10.869Z,101046.97
2023-01-10T15:04:59.495Z,101049.81
2023-01-10T15:07:30.718Z,101048.56
2023-01-10T15:10:13.568Z,101048.16
2023-01-10T15:12:50.325Z,101048.16
2023-01-10T15:15:20.259Z,101054.66
2023-01-10T15:17:51.476Z,101040.09
2023-01-10T15:20:21.935Z,101055.47
2023-01-10T15:23:04.415Z,101049.34
2023-01-10T15:25:39.787Z,101054.59
2023-01-10T15:28:19.768Z,101059.84
2023-01-10T15:30:55.743Z,101056.63
2023-01-10T15:33:30.385Z,101064.31
2023-01-10T15:36:12.604Z,101072.72
2023-01-10T15:38:48.264Z,101067.94
2023-01-10T15:41:24.701Z,101076.56
2023-01-10T15:43:55.788Z,101075.28
2023-01-10T15:46:29.386Z,101077.81
2023-01-10T15:49:04.655Z,101083.50
2023-01-10T15:51:41.743Z,101084.81
2023-01-10T15:54:18.670Z,101084.50
2023-01-10T15:57:06.635Z,101086.41
2023-01-10T15:59:46.795Z,101088.81
2023-01-10T16:02:29.390Z,101093.19
2023-01-10T16:05:18.661Z,101088.81
2023-01-10T16:07:52.020Z,101100.94
2023-01-10T16:10:27.423Z,101105.31
2023-01-10T16:13:28.302Z,101107.75
2023-01-10T16:16:06.128Z,101114.75
2023-01-10T16:18:34.629Z,101108.72
2023-01-10T16:21:11.355Z,101123.78
2023-01-10T16:23:47.299Z,101112.03
2023-01-10T16:26:21.015Z,101117.28
2023-01-10T16:28:51.310Z,101124.19
2023-01-10T16:31:21.755Z,101125.41
2023-01-10T16:33:52.054Z,101124.97
2023-01-10T16:36:25.370Z,101126.03
2023-01-10T16:39:01.072Z,101114.66
2023-01-10T16:41:55.725Z,101114.59
2023-01-10T16:44:34.699Z,101113.78
2023-01-10T16:47:17.368Z,101120.88
2023-01-10T16:49:51.418Z,101109.94
2023-01-10T16:52:19.509Z,101112.78
2023-01-10T16:54:53.857Z,101109.50
2023-01-10T16:57:26.747Z,101112.66
2023-01-10T17:00:00.237Z,101109.03
2023-01-10T17:02:31.391Z,101110.59
2023-01-10T17:05:04.701Z,101116.28
2023-01-10T17:07:35.512Z,101127.22
2023-01-10T17:10:09.303Z,101133.66
2023-01-10T17:12:42.421Z,101139.25
2023-01-10T17:15:17.238Z,101145.28
2023-01-10T17:17:50.718Z,101156.94
2023-01-10T17:20:26.475Z,101158.97
2023-01-10T17:22:57.994Z,101165.78
2023-01-10T17:25:31.656Z,101162.13
2023-01-10T17:28:05.882Z,101169.00
2023-01-10T17:30:37.124Z,101168.22
2023-01-10T17:33:12.257Z,101170.66
2023-01-10T17:35:44.198Z,101161.72
2023-01-10T17:38:17.769Z,101165.03
2023-01-10T17:40:46.648Z,101169.75
2023-01-10T17:43:15.415Z,101164.88
2023-01-10T17:45:48.822Z,101164.53
2023-01-10T17:48:22.116Z,101164.50
2023-01-10T17:51:00.588Z,101158.88
2023-01-10T17:53:34.129Z,101164.53
2023-01-10T17:56:05.089Z,101160.84
2023-01-10T17:58:35.289Z,101158.81
2023-01-10T18:01:05.527Z,101163.19
2023-01-10T18:03:50.191Z,101168.47
2023-01-10T18:06:25.361Z,101169.63
2023-01-10T18:08:54.482Z,101170.44
2023-01-10T18:11:25.685Z,101167.22
2023-01-10T18:13:59.644Z,101168.81
2023-01-10T18:16:29.887Z,101176.06
2023-01-10T18:19:00.561Z,101179.66
2023-01-10T18:21:32.675Z,101168.34
2023-01-10T18:24:05.727Z,101167.88
2023-01-10T18:26:36.158Z,101173.94
2023-01-10T18:29:12.568Z,101173.03
2023-01-10T18:31:42.609Z,101178.31
2023-01-10T18:34:21.871Z,101174.25
2023-01-10T18:36:52.061Z,101173.38
2023-01-10T18:39:19.776Z,101179.72
2023-01-10T18:41:50.813Z,101178.03
2023-01-10T18:44:23.037Z,101165.94
2023-01-10T18:46:50.599Z,101177.38
2023-01-10T18:49:23.585Z,101183.84
2023-01-10T18:51:57.205Z,101187.75
2023-01-10T18:54:31.029Z,101187.81
2023-01-10T18:57:04.082Z,101186.13
2023-01-10T18:59:35.270Z,101188.19
2023-01-10T19:02:15.360Z,101189.81
2023-01-10T19:04:45.886Z,101186.97
2023-01-10T19:07:21.980Z,101194.25
2023-01-10T19:09:54.137Z,101197.41
2023-01-10T19:12:24.505Z,101193.28
2023-01-10T19:14:57.737Z,101199.44
2023-01-10T19:17:33.395Z,101205.91
2023-01-10T19:20:10.094Z,101212.00
2023-01-10T19:22:43.541Z,101208.78
2023-01-10T19:25:16.516Z,101209.66
2023-01-10T19:27:44.251Z,101209.28
2023-01-10T19:30:23.623Z,101218.16
2023-01-10T19:32:55.489Z,101224.19
2023-01-10T19:35:34.398Z,101223.00
2023-01-10T19:38:10.241Z,101230.69
2023-01-10T19:40:46.426Z,101230.75
2023-01-10T19:43:24.257Z,101230.25
2023-01-10T19:45:57.353Z,101231.94
2023-01-10T19:48:27.820Z,101227.06
2023-01-10T19:51:13.055Z,101238.38
2023-01-10T19:53:44.483Z,101234.28
2023-01-10T19:56:23.048Z,101238.31
2023-01-10T19:58:59.028Z,101241.56
2023-01-10T20:01:34.134Z,101238.16
2023-01-10T20:04:06.552Z,101238.63
2023-01-10T20:06:40.256Z,101240.28
2023-01-10T20:09:12.109Z,101243.50
2023-01-10T20:11:42.880Z,101245.56
2023-01-10T20:14:18.630Z,101239.72
2023-01-10T20:16:49.109Z,101230.00
2023-01-10T20:19:22.757Z,101229.13
2023-01-10T20:21:53.533Z,101229.97
2023-01-10T20:24:24.324Z,101225.53
2023-01-10T20:26:54.720Z,101237.19
2023-01-10T20:29:27.446Z,101241.28
2023-01-10T20:32:00.947Z,101236.06
2023-01-10T20:34:36.543Z,101242.50
2023-01-10T20:37:09.131Z,101242.03
2023-01-10T20:39:36.683Z,101240.91
2023-01-10T20:42:07.681Z,101243.81
2023-01-10T20:44:35.350Z,101251.50
2023-01-10T20:47:13.128Z,101245.03
2023-01-10T20:49:43.894Z,101243.78
2023-01-10T20:52:14.294Z,101248.63
2023-01-10T20:54:46.217Z,101242.59
2023-01-10T20:57:18.429Z,101252.66
2023-01-10T20:59:51.416Z,101263.16
2023-01-10T21:02:21.958Z,101273.63
2023-01-10T21:04:54.699Z,101273.91
2023-01-10T21:07:29.342Z,101280.38
2023-01-10T21:09:57.069Z,101275.88
2023-01-10T21:12:27.924Z,101273.81
2023-01-10T21:15:01.633Z,101277.34
2023-01-10T21:17:38.016Z,101269.75
2023-01-10T21:20:12.739Z,101273.72
2023-01-10T21:22:46.827Z,101269.75
2023-01-10T21:25:20.064Z,101272.59
2023-01-10T21:27:52.521Z,101277.03
2023-01-10T21:30:23.243Z,101286.81
2023-01-10T21:32:52.163Z,101286.19
2023-01-10T21:35:31.717Z,101296.38
2023-01-10T21:38:07.114Z,101294.03
2023-01-10T21:40:35.239Z,101290.84
2023-01-10T21:43:06.184Z,101294.91
2023-01-10T21:45:37.824Z,101283.78
2023-01-10T21:48:08.669Z,101280.06
2023-01-10T21:50:39.671Z,101278.53
2023-01-10T21:53:07.385Z,101285.16
2023-01-10T21:55:37.839Z,101286.19
2023-01-10T21:58:12.903Z,101294.09
2023-01-10T22:00:49.608Z,101309.41
2023-01-10T22:03:30.908Z,101312.03
2023-01-10T22:06:06.207Z,101309.03
2023-01-10T22:08:36.041Z,101313.38
2023-01-10T22:11:07.669Z,101308.94
2023-01-10T22:13:39.421Z,101308.50
2023-01-10T22:16:09.470Z,101311.22
2023-01-10T22:18:40.820Z,101317.19
2023-01-10T22:21:13.400Z,101312.97
2023-01-10T22:23:45.975Z,101313.25
2023-01-10T22:26:19.986Z,101315.97
2023-01-10T22:28:53.089Z,101324.03
2023-01-10T22:31:26.607Z,101321.28
2023-01-10T22:34:02.696Z,101329.88
2023-01-10T22:36:34.658Z,101322.94
2023-01-10T22:39:05.153Z,101320.78
2023-01-10T22:41:35.540Z,101319.16
2023-01-10T22:44:06.894Z,101321.69
2023-01-10T22:46:36.921Z,101311.53
2023-01-10T22:49:09.839Z,101314.84
2023-01-10T22:51:41.238Z,101311.22
2023-01-10T22:54:13.278Z,101311.63
2023-01-10T22:56:46.659Z,101302.31
2023-01-10T22:59:16.868Z,101296.59
2023-01-10T23:01:47.355Z,101296.16
2023-01-10T23:04:20.266Z,101292.84
2023-01-10T23:06:56.003Z,101291.31
2023-01-10T23:09:25.853Z,101292.47
2023-01-10T23:11:59.785Z,101285.41
2023-01-10T23:14:32.428Z,101288.59
2023-01-10T23:17:01.982Z,101281.78
2023-01-10T23:19:35.760Z,101289.50
2023-01-10T23:22:06.377Z,101290.31
2023-01-10T23:24:39.500Z,101293.59
2023-01-10T23:27:14.208Z,101292.97
2023-01-10T23:29:47.098Z,101298.66
2023-01-10T23:32:20.076Z,101308.59
2023-01-10T23:34:56.836Z,101298.03
2023-01-10T23:37:29.940Z,101301.91
2023-01-10T23:40:02.189Z,101311.59
2023-01-10T23:42:32.216Z,101307.50
2023-01-10T23:45:00.934Z,101303.94
2023-01-10T23:47:33.815Z,101298.56
2023-01-10T23:50:04.462Z,101297.38
2023-01-10T23:52:34.098Z,101307.84
2023-01-10T23:55:02.801Z,101306.59
2023-01-10T23:57:38.496Z,101306.50
